createdAt,value
2023-02-19T00:01:35.915Z,2.53
2023-02-19T00:04:05.100Z,2.60
2023-02-19T00:06:33.698Z,2.90
2023-02-19T00:09:01.064Z,3.77
2023-02-19T00:11:29.662Z,2.77
2023-02-19T00:13:57.761Z,2.50
2023-02-19T00:16:26.042Z,2.90
2023-02-19T00:18:55.130Z,2.70
2023-02-19T00:21:22.349Z,2.37
2023-02-19T00:23:50.214Z,2.93
2023-02-19T00:26:18.901Z,3.00
2023-02-19T00:28:47.133Z,2.93
2023-02-19T00:31:23.049Z,3.33
2023-02-19T00:33:52.000Z,2.73
2023-02-19T00:36:20.108Z,3.00
2023-02-19T00:38:47.611Z,2.93
2023-02-19T00:41:21.625Z,2.97
2023-02-19T00:43:50.368Z,2.53
2023-02-19T00:46:18.694Z,2.80
2023-02-19T00:48:46.015Z,2.90
2023-02-19T00:51:12.895Z,3.17
2023-02-19T00:53:42.579Z,2.90
2023-02-19T00:56:09.425Z,3.30
2023-02-19T00:58:36.604Z,3.57
2023-02-19T01:01:03.382Z,3.43
2023-02-19T01:03:30.051Z,3.70
2023-02-19T01:05:56.736Z,3.93
2023-02-19T01:08:24.205Z,3.60
2023-02-19T01:10:51.738Z,3.70
2023-02-19T01:13:18.803Z,3.80
2023-02-19T01:15:45.753Z,3.70
2023-02-19T01:18:12.633Z,3.50
2023-02-19T01:20:41.010Z,4.33
2023-02-19T01:23:08.360Z,3.83
2023-02-19T01:25:35.357Z,4.20
2023-02-19T01:28:02.700Z,5.07
2023-02-19T01:30:29.558Z,6.37
2023-02-19T01:32:56.195Z,5.13
2023-02-19T01:35:22.866Z,4.97
2023-02-19T01:37:49.582Z,5.20
2023-02-19T01:40:16.519Z,5.30
2023-02-19T01:42:43.767Z,4.37
2023-02-19T01:45:27.897Z,4.57
2023-02-19T01:48:09.018Z,3.47
2023-02-19T01:50:41.134Z,3.43
2023-02-19T01:53:10.477Z,4.43
2023-02-19T01:55:38.213Z,4.43
2023-02-19T01:58:06.141Z,5.23
2023-02-19T02:00:33.877Z,4.27
2023-02-19T02:03:01.137Z,5.20
2023-02-19T02:05:55.573Z,4.27
2023-02-19T02:08:41.347Z,4.07
2023-02-19T02:11:08.878Z,3.80
2023-02-19T02:13:38.374Z,4.50
2023-02-19T02:16:16.423Z,4.50
2023-02-19T02:18:53.901Z,4.53
2023-02-19T02:21:40.141Z,4.30
2023-02-19T02:24:32.106Z,5.43
2023-02-19T02:27:17.380Z,6.33
2023-02-19T02:30:22.083Z,5.17
2023-02-19T02:32:55.867Z,5.70
2023-02-19T02:35:26.396Z,6.53
2023-02-19T02:37:56.662Z,6.00
2023-02-19T02:40:24.114Z,6.57
2023-02-19T02:42:50.733Z,7.20
2023-02-19T02:45:36.859Z,6.63
2023-02-19T02:48:20.126Z,6.77
2023-02-19T02:50:50.539Z,5.77
2023-02-19T02:53:39.642Z,6.97
2023-02-19T02:56:07.655Z,5.77
2023-02-19T02:58:34.845Z,5.43
2023-02-19T03:01:25.512Z,5.27
2023-02-19T03:03:57.429Z,4.87
2023-02-19T03:06:28.698Z,5.03
2023-02-19T03:08:59.045Z,5.40
2023-02-19T03:11:44.104Z,4.87
2023-02-19T03:14:33.334Z,5.13
2023-02-19T03:17:24.174Z,5.53
2023-02-19T03:19:55.678Z,6.03
2023-02-19T03:22:27.376Z,4.73
2023-02-19T03:25:16.933Z,5.40
2023-02-19T03:27:44.850Z,6.37
2023-02-19T03:30:15.198Z,5.60
2023-02-19T03:32:48.075Z,6.13
2023-02-19T03:35:18.611Z,5.80
2023-02-19T03:37:50.196Z,6.73
2023-02-19T03:40:17.253Z,6.00
2023-02-19T03:42:50.296Z,6.93
2023-02-19T03:45:31.394Z,6.30
2023-02-19T03:48:06.721Z,5.87
2023-02-19T03:50:43.110Z,4.83
2023-02-19T03:53:17.934Z,4.67
2023-02-19T03:55:53.447Z,4.37
2023-02-19T03:58:28.081Z,3.23
2023-02-19T04:01:02.259Z,3.70
2023-02-19T04:03:34.101Z,4.90
2023-02-19T04:06:05.148Z,3.83
2023-02-19T04:08:35.401Z,4.10
2023-02-19T04:11:02.612Z,4.10
2023-02-19T04:13:32.492Z,3.80
2023-02-19T04:16:03.458Z,4.00
2023-02-19T04:18:34.163Z,4.00
2023-02-19T04:21:02.990Z,5.00
2023-02-19T04:23:36.217Z,4.10
2023-02-19T04:26:04.462Z,3.47
2023-02-19T04:28:31.367Z,3.17
2023-02-19T04:30:58.314Z,4.87
2023-02-19T04:33:25.262Z,4.70
2023-02-19T04:35:52.558Z,4.80
2023-02-19T04:38:19.208Z,4.47
2023-02-19T04:40:46.440Z,5.03
2023-02-19T04:43:13.071Z,4.17
2023-02-19T04:45:40.053Z,4.13
2023-02-19T04:48:06.682Z,5.33
2023-02-19T04:50:33.722Z,3.40
2023-02-19T04:53:01.001Z,3.67
2023-02-19T04:55:27.888Z,3.73
2023-02-19T04:57:54.808Z,3.57
2023-02-19T05:00:21.834Z,3.27
2023-02-19T05:02:48.730Z,3.47
2023-02-19T05:05:15.626Z,3.13
2023-02-19T05:07:42.544Z,3.50
2023-02-19T05:10:09.913Z,3.70
2023-02-19T05:12:36.531Z,3.63
2023-02-19T05:15:03.467Z,3.43
2023-02-19T05:17:32.997Z,3.30
2023-02-19T05:19:59.653Z,3.63
2023-02-19T05:22:27.893Z,3.40
2023-02-19T05:24:54.781Z,4.10
2023-02-19T05:27:22.092Z,3.33
2023-02-19T05:29:49.012Z,3.60
2023-02-19T05:32:15.969Z,3.20
2023-02-19T05:34:42.896Z,3.97
2023-02-19T05:37:09.826Z,3.57
2023-02-19T05:39:36.450Z,3.83
2023-02-19T05:42:03.463Z,4.00
2023-02-19T05:44:30.716Z,3.67
2023-02-19T05:46:57.604Z,3.67
2023-02-19T05:49:24.404Z,4.17
2023-02-19T05:51:51.343Z,4.13
2023-02-19T05:54:17.989Z,4.47
2023-02-19T05:56:44.639Z,3.47
2023-02-19T05:59:17.734Z,3.93
2023-02-19T06:01:45.302Z,4.60
2023-02-19T06:04:13.276Z,3.97
2023-02-19T06:06:40.770Z,3.67
2023-02-19T06:09:07.739Z,3.73
2023-02-19T06:11:34.716Z,3.60
2023-02-19T06:14:01.776Z,3.70
2023-02-19T06:16:28.950Z,3.73
2023-02-19T06:18:56.457Z,3.97
2023-02-19T06:21:23.123Z,3.90
2023-02-19T06:23:50.063Z,3.63
2023-02-19T06:26:19.784Z,3.67
2023-02-19T06:28:48.061Z,3.63
2023-02-19T06:31:15.452Z,3.13
2023-02-19T06:33:42.674Z,3.80
2023-02-19T06:36:12.216Z,3.03
2023-02-19T06:38:39.180Z,3.53
2023-02-19T06:41:07.286Z,3.00
2023-02-19T06:43:34.906Z,2.60
2023-02-19T06:46:03.215Z,3.63
2023-02-19T06:48:31.071Z,2.47
2023-02-19T06:50:58.136Z,3.03
2023-02-19T06:53:25.673Z,3.27
2023-02-19T06:56:04.034Z,2.30
2023-02-19T06:58:32.063Z,2.27
2023-02-19T07:00:58.963Z,3.13
2023-02-19T07:03:26.003Z,2.73
2023-02-19T07:05:52.958Z,2.10
2023-02-19T07:08:19.803Z,2.83
2023-02-19T07:10:54.987Z,3.50
2023-02-19T07:13:21.948Z,3.00
2023-02-19T07:15:49.141Z,2.60
2023-02-19T07:18:17.139Z,2.63
2023-02-19T07:20:44.042Z,2.93
2023-02-19T07:23:10.936Z,2.73
2023-02-19T07:25:38.339Z,2.90
2023-02-19T07:28:05.837Z,3.10
2023-02-19T07:30:32.881Z,2.93
2023-02-19T07:32:59.545Z,3.10
2023-02-19T07:35:26.525Z,3.17
2023-02-19T07:37:53.451Z,2.50
2023-02-19T07:40:20.089Z,2.60
2023-02-19T07:42:46.991Z,2.20
2023-02-19T07:45:14.921Z,2.57
2023-02-19T07:47:41.850Z,2.77
2023-02-19T07:50:08.823Z,2.60
2023-02-19T07:52:35.744Z,2.27
2023-02-19T07:55:02.699Z,3.20
2023-02-19T07:57:30.557Z,2.50
2023-02-19T07:59:58.072Z,3.53
2023-02-19T08:02:43.379Z,2.00
2023-02-19T08:05:10.315Z,2.93
2023-02-19T08:07:37.126Z,2.67
2023-02-19T08:10:23.023Z,2.77
2023-02-19T08:13:13.295Z,2.60
2023-02-19T08:15:40.205Z,2.80
2023-02-19T08:18:07.684Z,2.80
2023-02-19T08:20:34.511Z,2.40
2023-02-19T08:23:01.543Z,3.13
2023-02-19T08:25:29.122Z,2.43
2023-02-19T08:27:56.139Z,3.00
2023-02-19T08:30:22.839Z,2.60
2023-02-19T08:32:49.883Z,4.10
2023-02-19T08:35:17.448Z,3.13
2023-02-19T08:37:44.123Z,2.80
2023-02-19T08:40:11.167Z,3.17
2023-02-19T08:42:38.084Z,2.13
2023-02-19T08:45:05.355Z,3.20
2023-02-19T08:47:34.356Z,2.93
2023-02-19T08:50:01.510Z,3.07
2023-02-19T08:52:28.777Z,2.60
2023-02-19T08:54:55.872Z,3.90
2023-02-19T08:57:23.048Z,2.60
2023-02-19T08:59:49.629Z,2.80
2023-02-19T09:02:16.666Z,2.27
2023-02-19T09:04:43.474Z,2.83
2023-02-19T09:07:11.922Z,2.70
2023-02-19T09:09:39.777Z,2.43
2023-02-19T09:12:08.426Z,2.67
2023-02-19T09:14:35.951Z,3.20
2023-02-19T09:17:03.978Z,2.37
2023-02-19T09:19:31.240Z,2.53
2023-02-19T09:21:58.418Z,2.23
2023-02-19T09:24:25.383Z,5.90
2023-02-19T09:26:53.793Z,2.37
2023-02-19T09:29:21.182Z,2.10
2023-02-19T09:31:48.163Z,3.83
2023-02-19T09:34:15.166Z,2.33
2023-02-19T09:36:42.118Z,3.03
2023-02-19T09:39:11.746Z,3.53
2023-02-19T09:41:44.568Z,2.73
2023-02-19T09:44:17.685Z,2.47
2023-02-19T09:46:46.814Z,3.20
2023-02-19T09:49:16.775Z,3.07
2023-02-19T09:51:48.765Z,2.67
2023-02-19T09:54:26.056Z,3.07
2023-02-19T09:56:54.690Z,2.10
2023-02-19T09:59:25.539Z,2.00
2023-02-19T10:01:59.228Z,2.87
2023-02-19T10:04:26.517Z,1.93
2023-02-19T10:06:58.263Z,2.50
2023-02-19T10:09:28.279Z,2.13
2023-02-19T10:11:55.649Z,2.20
2023-02-19T10:14:30.759Z,2.37
2023-02-19T10:17:00.594Z,2.50
2023-02-19T10:19:27.602Z,3.13
2023-02-19T10:21:56.025Z,3.47
2023-02-19T10:24:26.748Z,2.30
2023-02-19T10:26:53.883Z,2.53
2023-02-19T10:29:21.269Z,1.73
2023-02-19T10:31:48.813Z,2.07
2023-02-19T10:34:19.862Z,2.10
2023-02-19T10:36:48.627Z,2.33
2023-02-19T10:39:35.503Z,2.20
2023-02-19T10:42:02.909Z,2.63
2023-02-19T10:44:35.122Z,1.70
2023-02-19T10:47:02.420Z,1.50
2023-02-19T10:49:32.022Z,2.33
2023-02-19T10:52:01.748Z,2.27
2023-02-19T10:54:31.105Z,2.10
2023-02-19T10:57:24.642Z,2.77
2023-02-19T10:59:53.098Z,1.90
2023-02-19T11:02:21.353Z,2.30
2023-02-19T11:05:14.458Z,2.00
2023-02-19T11:07:45.725Z,2.73
2023-02-19T11:10:23.391Z,2.03
2023-02-19T11:12:51.881Z,2.10
2023-02-19T11:15:22.636Z,2.03
2023-02-19T11:17:57.186Z,2.17
2023-02-19T11:20:24.277Z,1.37
2023-02-19T11:22:51.321Z,1.60
2023-02-19T11:25:24.713Z,2.37
2023-02-19T11:28:01.895Z,2.03
2023-02-19T11:30:37.355Z,1.87
2023-02-19T11:33:34.668Z,2.53
2023-02-19T11:36:21.063Z,2.57
2023-02-19T11:38:47.925Z,3.83
2023-02-19T11:41:22.051Z,2.37
2023-02-19T11:44:01.843Z,1.67
2023-02-19T11:46:36.634Z,2.23
2023-02-19T11:49:18.303Z,2.67
2023-02-19T11:52:03.577Z,6.23
2023-02-19T11:54:48.567Z,3.20
2023-02-19T11:57:30.868Z,2.77
2023-02-19T12:00:15.919Z,1.50
2023-02-19T12:03:10.730Z,2.67
2023-02-19T12:05:49.965Z,1.93
2023-02-19T12:08:47.718Z,1.20
2023-02-19T12:11:35.453Z,2.17
2023-02-19T12:14:23.995Z,2.13
2023-02-19T12:16:59.024Z,2.60
2023-02-19T12:19:55.690Z,1.87
2023-02-19T12:22:29.471Z,2.03
2023-02-19T12:25:23.901Z,1.57
2023-02-19T12:28:17.852Z,1.70
2023-02-19T12:31:04.409Z,2.00
2023-02-19T12:33:56.392Z,2.50
2023-02-19T12:36:33.831Z,1.73
2023-02-19T12:39:12.165Z,1.67
2023-02-19T12:41:45.057Z,1.70
2023-02-19T12:44:16.812Z,1.73
2023-02-19T12:46:48.921Z,2.03
2023-02-19T12:49:25.554Z,1.83
2023-02-19T12:51:56.825Z,1.13
2023-02-19T12:54:30.124Z,2.40
2023-02-19T12:57:01.866Z,1.20
2023-02-19T12:59:34.431Z,1.50
2023-02-19T13:02:13.329Z,2.77
2023-02-19T13:04:49.751Z,1.57
2023-02-19T13:07:22.318Z,2.17
2023-02-19T13:09:54.549Z,1.23
2023-02-19T13:12:24.611Z,2.13
2023-02-19T13:14:57.651Z,2.10
2023-02-19T13:17:28.346Z,1.23
2023-02-19T13:20:02.069Z,1.70
2023-02-19T13:22:57.308Z,2.23
2023-02-19T13:25:39.531Z,1.30
2023-02-19T13:28:19.895Z,1.67
2023-02-19T13:31:05.506Z,2.17
2023-02-19T13:33:43.562Z,1.50
2023-02-19T13:36:13.973Z,1.73
2023-02-19T13:38:43.957Z,1.50
2023-02-19T13:41:28.774Z,1.33
2023-02-19T13:44:00.017Z,1.23
2023-02-19T13:46:36.130Z,2.00
2023-02-19T13:49:46.743Z,1.70
2023-02-19T13:52:40.910Z,1.67
2023-02-19T13:55:49.001Z,1.30
2023-02-19T13:59:01.018Z,1.77
2023-02-19T14:02:11.501Z,1.70
2023-02-19T14:04:50.387Z,1.87
2023-02-19T14:07:33.831Z,1.40
2023-02-19T14:10:01.222Z,1.47
2023-02-19T14:12:34.057Z,1.00
2023-02-19T14:15:34.485Z,1.40
2023-02-19T14:18:02.441Z,1.53
2023-02-19T14:20:48.971Z,1.73
2023-02-19T14:23:17.662Z,1.73
2023-02-19T14:25:52.078Z,1.53
2023-02-19T14:28:41.765Z,1.77
2023-02-19T14:31:22.870Z,1.27
2023-02-19T14:33:53.059Z,2.00
2023-02-19T14:36:31.208Z,1.47
2023-02-19T14:39:00.514Z,1.50
2023-02-19T14:41:30.174Z,1.60
2023-02-19T14:44:02.368Z,1.50
2023-02-19T14:46:35.621Z,1.90
2023-02-19T14:49:06.887Z,1.40
2023-02-19T14:51:39.233Z,1.93
2023-02-19T14:54:15.970Z,1.77
2023-02-19T14:56:47.302Z,1.50
2023-02-19T14:59:33.130Z,1.50
2023-02-19T15:02:02.420Z,1.50
2023-02-19T15:04:34.428Z,1.30
2023-02-19T15:07:08.435Z,1.47
2023-02-19T15:09:40.675Z,1.87
2023-02-19T15:12:14.979Z,2.37
2023-02-19T15:14:43.076Z,1.70
2023-02-19T15:17:15.709Z,1.60
2023-02-19T15:19:46.739Z,1.40
2023-02-19T15:22:20.592Z,1.40
2023-02-19T15:24:48.859Z,1.10
2023-02-19T15:27:23.869Z,1.40
2023-02-19T15:29:53.717Z,2.20
2023-02-19T15:32:22.211Z,1.33
2023-02-19T15:34:57.660Z,1.20
2023-02-19T15:37:30.407Z,1.00
2023-02-19T15:39:59.851Z,1.10
2023-02-19T15:42:34.095Z,1.60
2023-02-19T15:45:06.310Z,1.53
2023-02-19T15:47:40.634Z,1.87
2023-02-19T15:50:11.355Z,1.10
2023-02-19T15:52:47.574Z,1.40
2023-02-19T15:55:26.514Z,1.10
2023-02-19T15:58:08.157Z,1.40
2023-02-19T16:00:44.104Z,1.50
2023-02-19T16:03:17.462Z,2.03
2023-02-19T16:05:44.570Z,1.80
2023-02-19T16:08:20.918Z,1.67
2023-02-19T16:10:58.881Z,1.97
2023-02-19T16:13:27.150Z,1.87
2023-02-19T16:16:10.063Z,1.97
2023-02-19T16:18:46.501Z,1.73
2023-02-19T16:21:17.613Z,1.67
2023-02-19T16:23:47.702Z,2.03
2023-02-19T16:26:14.995Z,2.33
2023-02-19T16:28:42.106Z,1.87
2023-02-19T16:31:10.860Z,2.80
2023-02-19T16:33:39.969Z,1.77
2023-02-19T16:36:25.910Z,2.40
2023-02-19T16:39:20.833Z,5.13
2023-02-19T16:42:18.681Z,2.83
2023-02-19T16:44:46.501Z,2.50
2023-02-19T16:47:28.837Z,2.27
2023-02-19T16:49:57.396Z,2.60
2023-02-19T16:52:24.306Z,1.97
2023-02-19T16:54:51.646Z,2.30
2023-02-19T16:57:20.029Z,2.60
2023-02-19T16:59:47.481Z,2.47
2023-02-19T17:02:18.910Z,2.80
2023-02-19T17:04:48.528Z,2.77
2023-02-19T17:07:17.035Z,2.93
2023-02-19T17:09:43.835Z,3.00
2023-02-19T17:12:13.081Z,2.53
2023-02-19T17:14:39.775Z,2.27
2023-02-19T17:17:06.734Z,2.27
2023-02-19T17:19:34.120Z,3.60
2023-02-19T17:22:01.343Z,2.30
2023-02-19T17:24:28.038Z,3.30
2023-02-19T17:26:54.948Z,3.33
2023-02-19T17:29:23.795Z,2.23
2023-02-19T17:31:51.679Z,3.60
2023-02-19T17:34:18.993Z,4.73
2023-02-19T17:36:48.226Z,3.70
2023-02-19T17:39:17.614Z,3.60
2023-02-19T17:41:45.123Z,3.87
2023-02-19T17:44:12.275Z,3.67
2023-02-19T17:46:40.109Z,2.97
2023-02-19T17:49:07.698Z,3.60
2023-02-19T17:51:34.833Z,3.43
2023-02-19T17:54:01.924Z,4.00
2023-02-19T17:56:29.675Z,4.73
2023-02-19T17:58:58.128Z,5.40
2023-02-19T18:01:25.418Z,4.57
2023-02-19T18:03:52.913Z,5.33
2023-02-19T18:06:20.360Z,4.77
2023-02-19T18:08:49.035Z,5.80
2023-02-19T18:11:16.075Z,4.10
2023-02-19T18:13:42.738Z,3.87
2023-02-19T18:16:09.713Z,3.23
2023-02-19T18:18:36.646Z,2.70
2023-02-19T18:21:07.204Z,2.57
2023-02-19T18:23:33.838Z,3.07
2023-02-19T18:26:00.757Z,3.23
2023-02-19T18:28:27.611Z,2.77
2023-02-19T18:30:54.416Z,3.70
2023-02-19T18:33:21.428Z,4.10
2023-02-19T18:35:49.890Z,5.70
2023-02-19T18:38:17.341Z,6.57
2023-02-19T18:40:44.496Z,8.43
2023-02-19T18:43:11.156Z,6.73
2023-02-19T18:45:39.008Z,8.10
2023-02-19T18:48:11.115Z,7.57
2023-02-19T18:50:40.539Z,6.20
2023-02-19T18:53:07.496Z,6.13
2023-02-19T18:55:34.904Z,6.07
2023-02-19T18:58:05.088Z,6.27
2023-02-19T19:00:35.736Z,6.20
2023-02-19T19:03:02.729Z,6.17
2023-02-19T19:05:29.787Z,5.80
2023-02-19T19:07:58.424Z,6.10
2023-02-19T19:10:25.829Z,5.57
2023-02-19T19:12:55.242Z,5.57
2023-02-19T19:15:26.256Z,4.27
2023-02-19T19:17:57.570Z,5.70
2023-02-19T19:20:24.949Z,4.97
2023-02-19T19:22:53.028Z,3.80
2023-02-19T19:25:22.357Z,5.47
2023-02-19T19:27:51.850Z,4.80
2023-02-19T19:30:20.787Z,5.30
2023-02-19T19:32:48.540Z,5.50
2023-02-19T19:35:16.695Z,5.63
2023-02-19T19:37:45.025Z,5.07
2023-02-19T19:40:13.056Z,5.23
2023-02-19T19:42:40.188Z,5.47
2023-02-19T19:45:08.903Z,5.57
2023-02-19T19:47:40.717Z,5.07
2023-02-19T19:50:11.801Z,4.93
2023-02-19T19:52:38.572Z,5.30
2023-02-19T19:55:05.842Z,4.80
2023-02-19T19:57:33.379Z,5.93
2023-02-19T20:00:01.875Z,4.90
2023-02-19T20:02:28.948Z,5.20
2023-02-19T20:04:57.554Z,4.90
2023-02-19T20:07:24.541Z,4.47
2023-02-19T20:09:51.762Z,4.10
2023-02-19T20:12:20.546Z,4.17
2023-02-19T20:14:47.801Z,4.33
2023-02-19T20:17:15.452Z,4.47
2023-02-19T20:19:45.220Z,4.17
2023-02-19T20:22:13.374Z,4.20
2023-02-19T20:24:40.054Z,4.13
2023-02-19T20:27:08.331Z,4.73
2023-02-19T20:29:35.540Z,5.00
2023-02-19T20:32:03.474Z,5.30
2023-02-19T20:34:30.806Z,4.50
2023-02-19T20:36:58.634Z,4.00
2023-02-19T20:39:28.487Z,4.23
2023-02-19T20:41:56.975Z,4.50
2023-02-19T20:44:24.700Z,3.73
2023-02-19T20:46:53.206Z,5.43
2023-02-19T20:49:22.227Z,4.50
2023-02-19T20:51:51.240Z,3.30
2023-02-19T20:54:18.922Z,4.70
2023-02-19T20:56:47.350Z,5.07
2023-02-19T20:59:15.765Z,5.83
2023-02-19T21:01:42.829Z,4.80
2023-02-19T21:04:10.052Z,5.07
2023-02-19T21:06:37.045Z,5.80
2023-02-19T21:09:07.603Z,5.50
2023-02-19T21:11:34.943Z,5.00
2023-02-19T21:14:02.665Z,6.50
2023-02-19T21:16:31.151Z,6.10
2023-02-19T21:18:58.697Z,6.33
2023-02-19T21:21:26.325Z,5.27
2023-02-19T21:23:54.042Z,6.03
2023-02-19T21:26:21.509Z,4.87
2023-02-19T21:28:50.448Z,5.53
2023-02-19T21:31:19.506Z,5.40
2023-02-19T21:33:49.911Z,5.73
2023-02-19T21:36:18.643Z,4.63
2023-02-19T21:38:45.710Z,5.33
2023-02-19T21:41:16.320Z,5.93
2023-02-19T21:43:43.250Z,5.20
2023-02-19T21:46:10.676Z,4.57
2023-02-19T21:48:38.513Z,5.40
2023-02-19T21:51:06.037Z,4.57
2023-02-19T21:53:33.341Z,4.53
2023-02-19T21:56:00.286Z,4.20
2023-02-19T21:58:27.234Z,4.20
2023-02-19T22:00:55.998Z,4.63
2023-02-19T22:03:23.483Z,3.90
2023-02-19T22:05:50.864Z,4.00
2023-02-19T22:08:17.871Z,4.77
2023-02-19T22:10:44.899Z,3.73
2023-02-19T22:13:12.526Z,4.13
2023-02-19T22:15:39.549Z,3.50
2023-02-19T22:18:06.655Z,3.50
2023-02-19T22:20:35.106Z,3.53
2023-02-19T22:23:02.548Z,3.90
2023-02-19T22:25:29.471Z,4.20
2023-02-19T22:27:56.412Z,3.93
2023-02-19T22:30:23.785Z,4.30
2023-02-19T22:32:50.861Z,4.57
2023-02-19T22:35:17.893Z,4.03
2023-02-19T22:37:45.094Z,4.63
2023-02-19T22:40:13.853Z,4.27
2023-02-19T22:42:41.591Z,3.50
2023-02-19T22:45:10.772Z,3.17
2023-02-19T22:47:40.185Z,4.03
2023-02-19T22:50:07.997Z,3.67
2023-02-19T22:52:36.447Z,4.10
2023-02-19T22:55:03.742Z,4.23
2023-02-19T22:57:35.938Z,4.47
2023-02-19T23:00:02.910Z,4.57
2023-02-19T23:02:30.600Z,4.73
2023-02-19T23:04:57.576Z,4.13
2023-02-19T23:07:24.886Z,3.73
2023-02-19T23:09:51.823Z,3.40
2023-02-19T23:12:18.775Z,4.00
2023-02-19T23:14:47.191Z,4.20
2023-02-19T23:17:13.954Z,3.87
2023-02-19T23:19:43.946Z,3.53
2023-02-19T23:22:11.052Z,3.33
2023-02-19T23:24:39.128Z,3.93
2023-02-19T23:27:05.784Z,3.13
2023-02-19T23:29:35.813Z,4.07
2023-02-19T23:32:06.168Z,3.60
2023-02-19T23:34:34.913Z,3.73
2023-02-19T23:37:04.837Z,3.50
2023-02-19T23:39:31.814Z,3.97
2023-02-19T23:41:59.481Z,4.30
2023-02-19T23:44:26.632Z,3.70
2023-02-19T23:46:59.225Z,4.53
2023-02-19T23:49:26.588Z,4.57
2023-02-19T23:51:56.021Z,4.00
2023-02-19T23:54:22.699Z,4.03
2023-02-19T23:56:49.669Z,4.23
2023-02-19T23:59:16.611Z,4.17
